Time;durP1;ratioP1;P1;durP2;ratioP2;P2;SDS_P1;SDS_P2;PMS_P1;PMS_P2;Temp;Humidity;BMP_temperature;BMP_pressure;BME280_temperature;BME280_humidity;BME280_pressure;Samples;Min_cycle;Max_cycle;Signal;HPM_P1;HPM_P2
2022/12/18 00:03:26;;;;;;;;;;;;;;;-5.44;94.14;100880.98;435545;1287;142937;-69
2022/12/18 00:13:32;;;;;;;42.80;24.00;;;;;;;-5.47;94.19;100886.04;436557;1284;173361;-70
2022/12/18 00:23:39;;;;;;;42.70;23.80;;;;;;;-5.56;94.02;100885.66;436095;1279;143266;-71
2022/12/18 00:33:46;;;;;;;35.30;20.00;;;;;;;-5.59;94.10;100908.81;431208;1282;143784;-70
2022/12/18 00:43:54;;;;;;;37.20;21.90;;;;;;;-5.56;94.27;100919.12;436086;1283;143146;-70
2022/12/18 00:53:58;;;;;;;;;;;;;;;-5.52;94.42;100926.36;435496;1284;143661;-70
2022/12/18 01:04:05;;;;;;;34.00;22.10;;;;;;;-5.48;94.20;100939.77;436318;1285;139415;-70
2022/12/18 01:14:11;;;;;;;34.40;22.00;;;;;;;-5.46;94.23;100939.64;435982;1280;249865;-70
2022/12/18 01:24:17;;;;;;;35.80;19.50;;;;;;;-5.50;94.13;100950.14;435627;1282;142739;-70
2022/12/18 01:34:21;;;;;;;;;;;;;;;-5.52;94.26;100963.40;426565;1283;143295;-70
2022/12/18 01:44:58;;;;;;;34.90;20.80;;;;;;;-5.60;94.06;100976.17;434435;1286;129241;-69
2022/12/18 01:55:06;;;;;;;33.70;20.60;;;;;;;-5.71;94.03;100987.17;435719;1282;186930;-69
2022/12/18 02:05:15;;;;;;;32.10;20.50;;;;;;;-5.69;94.02;100999.85;436372;1281;142661;-69
2022/12/18 02:15:27;;;;;;;29.30;19.70;;;;;;;-5.68;93.87;101014.36;435716;1281;144842;-69
2022/12/18 02:25:46;;;;;;;30.40;19.30;;;;;;;-5.67;93.85;101025.31;436160;1284;142081;-69
2022/12/18 02:35:55;;;;;;;31.20;19.50;;;;;;;-5.66;93.87;101033.54;424358;1281;142889;-70
2022/12/18 02:46:16;;;;;;;31.70;19.90;;;;;;;-5.73;93.97;101047.54;435680;1284;141754;-70
2022/12/18 02:56:27;;;;;;;32.30;21.90;;;;;;;-5.80;93.84;101056.89;436492;1286;142258;-70
2022/12/18 03:06:38;;;;;;;34.10;20.30;;;;;;;-5.83;93.62;101068.41;435620;1287;143999;-70
2022/12/18 03:16:45;;;;;;;34.40;21.00;;;;;;;-5.85;93.75;101073.63;436511;1280;143018;-70
2022/12/18 03:26:54;;;;;;;36.50;22.90;;;;;;;-5.85;93.85;101085.75;436484;1282;142906;-70
2022/12/18 03:37:00;;;;;;;32.20;18.90;;;;;;;-5.93;93.45;101104.30;422666;1275;199199;-69
2022/12/18 03:47:11;;;;;;;34.70;22.90;;;;;;;-5.98;93.76;101122.23;422621;1274;154059;-69
2022/12/18 03:57:20;;;;;;;33.90;21.10;;;;;;;-6.09;93.68;101131.51;422218;1282;146096;-68
2022/12/18 04:07:26;;;;;;;31.20;18.90;;;;;;;-6.07;94.06;101134.81;436362;1276;144275;-69
2022/12/18 04:17:32;;;;;;;31.50;21.80;;;;;;;-6.03;93.99;101153.14;436287;1280;143187;-69
2022/12/18 04:27:36;;;;;;;;;;;;;;;-5.98;94.08;101157.86;435652;1284;200391;-70
2022/12/18 04:37:41;;;;;;;36.40;22.90;;;;;;;-5.99;93.81;101163.79;424326;1275;134504;-70
2022/12/18 04:47:47;;;;;;;36.90;24.20;;;;;;;-6.01;94.06;101184.92;423421;1281;144758;-70
2022/12/18 04:57:51;;;;;;;;;;;;;;;-6.07;94.06;101202.64;422268;1281;187822;-70
2022/12/18 05:07:57;;;;;;;43.20;26.30;;;;;;;-6.07;94.03;101209.83;429632;1282;129046;-69
2022/12/18 05:18:04;;;;;;;40.10;24.10;;;;;;;-6.12;94.14;101213.59;435705;1281;143678;-69
2022/12/18 05:28:09;;;;;;;41.80;24.10;;;;;;;-6.08;94.10;101225.12;436306;1285;144021;-70
2022/12/18 05:38:15;;;;;;;39.10;24.50;;;;;;;-6.09;93.90;101231.08;427231;1277;141780;-70
2022/12/18 05:48:21;;;;;;;43.80;27.50;;;;;;;-6.13;93.91;101232.67;435722;1282;188102;-70
2022/12/18 05:58:27;;;;;;;43.90;26.90;;;;;;;-6.12;94.05;101241.19;436372;1281;143634;-72
2022/12/18 06:08:32;;;;;;;40.60;23.90;;;;;;;-6.05;94.02;101249.94;435979;1281;143424;-70
2022/12/18 06:18:38;;;;;;;48.40;27.60;;;;;;;-6.06;94.06;101262.70;435403;1277;143446;-71
2022/12/18 06:28:44;;;;;;;43.50;27.60;;;;;;;-6.11;93.92;101282.34;436045;1282;143212;-70
2022/12/18 06:38:50;;;;;;;49.20;28.60;;;;;;;-6.11;94.00;101300.73;422478;1281;143287;-69
2022/12/18 06:48:56;;;;;;;45.80;27.20;;;;;;;-6.16;94.01;101319.00;421375;1275;143003;-70
2022/12/18 06:59:01;;;;;;;43.80;27.10;;;;;;;-6.28;93.80;101330.55;425192;1278;142859;-70
2022/12/18 07:09:07;;;;;;;47.60;27.40;;;;;;;-6.36;94.02;101359.60;435582;1284;199413;-71
2022/12/18 07:19:13;;;;;;;53.00;30.00;;;;;;;-6.27;93.88;101376.42;436296;1277;142915;-72
2022/12/18 07:29:18;;;;;;;51.90;28.70;;;;;;;-6.11;94.03;101391.81;436504;1278;144205;-70
2022/12/18 07:39:24;;;;;;;49.10;30.90;;;;;;;-5.95;93.85;101405.27;423348;1275;143669;-69
2022/12/18 07:49:28;;;;;;;;;;;;;;;-5.77;93.83;101403.09;422494;1275;147015;-70
2022/12/18 07:59:34;;;;;;;48.80;30.20;;;;;;;-5.64;93.82;101405.73;434579;1283;129920;-71
2022/12/18 08:09:39;;;;;;;45.50;25.50;;;;;;;-5.53;93.29;101412.90;435566;1282;143206;-70
2022/12/18 08:19:45;;;;;;;45.70;27.40;;;;;;;-5.60;92.90;101430.45;432866;1282;143405;-70
2022/12/18 08:29:49;;;;;;;;;;;;;;;-5.72;92.61;101446.76;434818;1277;141712;-70
2022/12/18 08:39:55;;;;;;;46.90;28.20;;;;;;;-5.70;92.90;101453.33;424123;1282;128899;-71
2022/12/18 08:50:01;;;;;;;49.10;28.50;;;;;;;-5.42;92.89;101454.39;436389;1282;152928;-70
2022/12/18 09:00:06;;;;;;;;;;;;;;;-5.37;92.21;101468.02;435494;1281;146621;-70
2022/12/18 09:10:12;;;;;;;45.20;26.90;;;;;;;-5.28;92.21;101477.18;436628;1284;174269;-70
2022/12/18 09:20:16;;;;;;;;;;;;;;;-5.05;91.81;101491.73;436380;1281;143588;-71
2022/12/18 09:30:22;;;;;;;58.80;34.00;;;;;;;-5.14;91.31;101493.83;428678;1282;129760;-68
2022/12/18 09:40:37;;;;;;;55.30;28.90;;;;;;;-5.09;91.30;101503.90;424012;1274;143932;-68
2022/12/18 09:50:43;;;;;;;58.60;30.70;;;;;;;-5.12;90.99;101505.52;436076;1274;143675;-69
2022/12/18 10:00:52;;;;;;;55.30;31.80;;;;;;;-5.11;90.91;101504.02;435313;1282;144413;-69
2022/12/18 10:11:03;;;;;;;44.80;26.20;;;;;;;-5.21;90.45;101502.15;435977;1282;145911;-69
2022/12/18 10:21:15;;;;;;;51.70;24.40;;;;;;;-5.21;90.72;101501.11;435233;1287;142626;-69
2022/12/18 10:31:22;;;;;;;39.10;24.30;;;;;;;-5.26;90.42;101496.03;435947;1284;145074;-69
2022/12/18 10:41:30;;;;;;;42.10;25.10;;;;;;;-5.39;90.18;101503.65;425081;1274;143269;-68
2022/12/18 10:51:38;;;;;;;40.80;24.60;;;;;;;-5.27;90.31;101512.38;434847;1277;145198;-70
2022/12/18 11:01:54;;;;;;;45.50;25.50;;;;;;;-5.11;90.12;101514.58;435874;1282;144268;-69
2022/12/18 11:12:02;;;;;;;39.70;22.20;;;;;;;-5.29;89.43;101516.40;425692;1274;143486;-69
2022/12/18 11:22:24;;;;;;;39.20;23.70;;;;;;;-5.50;89.57;101518.13;424233;1275;143240;-68
2022/12/18 11:32:40;;;;;;;40.80;22.50;;;;;;;-5.45;89.76;101513.00;421637;1274;145144;-69
2022/12/18 11:42:51;;;;;;;47.90;24.80;;;;;;;-5.38;89.50;101512.04;421663;1277;143685;-69
2022/12/18 11:52:56;;;;;;;47.60;25.50;;;;;;;-5.31;89.55;101510.39;423652;1275;143927;-69
2022/12/18 12:03:48;;;;;;;47.00;30.00;;;;;;;-5.29;89.25;101503.27;423143;1275;143646;-71
2022/12/18 12:14:07;;;;;;;45.60;26.70;;;;;;;-5.52;89.17;101524.55;423150;1291;183878;-69
2022/12/18 12:24:31;;;;;;;48.10;28.70;;;;;;;-5.37;89.68;101527.42;422469;1282;143414;-70
2022/12/18 12:34:51;;;;;;;46.70;28.30;;;;;;;-5.16;89.65;101535.27;423207;1281;144506;-70
2022/12/18 12:45:14;;;;;;;50.60;29.30;;;;;;;-5.25;89.09;101552.76;422711;1288;144554;-70
2022/12/18 12:55:23;;;;;;;52.30;30.10;;;;;;;-5.37;88.97;101568.41;432918;1283;143637;-70
2022/12/18 13:05:35;;;;;;;53.90;32.00;;;;;;;-5.47;89.16;101569.60;436457;1282;143466;-70
2022/12/18 13:15:44;;;;;;;43.10;26.90;;;;;;;-5.51;89.00;101571.88;435512;1282;268820;-70
2022/12/18 13:25:51;;;;;;;49.50;29.30;;;;;;;-5.72;88.80;101570.82;436486;1278;143886;-69
2022/12/18 13:36:09;;;;;;;43.30;26.40;;;;;;;-5.98;88.42;101580.83;436464;1275;143593;-69
2022/12/18 13:46:24;;;;;;;40.80;26.60;;;;;;;-6.27;88.65;101590.05;426608;1281;197883;-70
2022/12/18 13:56:32;;;;;;;41.30;27.00;;;;;;;-6.52;88.98;101596.08;436413;1281;144091;-70
2022/12/18 14:06:38;;;;;;;49.00;29.60;;;;;;;-6.65;89.46;101604.95;432232;1282;147317;-69
2022/12/18 14:16:46;;;;;;;37.50;23.70;;;;;;;-6.76;89.30;101608.44;436227;1286;143030;-69
2022/12/18 14:26:53;;;;;;;36.30;23.00;;;;;;;-7.04;89.57;101613.81;436285;1275;143607;-68
2022/12/18 14:36:59;;;;;;;40.00;28.30;;;;;;;-7.16;89.94;101610.95;435820;1287;142754;-70
2022/12/18 14:47:06;;;;;;;42.00;26.10;;;;;;;-7.30;89.91;101614.47;428875;1281;143719;-70
2022/12/18 14:57:22;;;;;;;40.70;25.70;;;;;;;-7.34;90.22;101617.20;422703;1281;143134;-71
2022/12/18 15:07:28;;;;;;;42.40;26.50;;;;;;;-7.54;90.22;101632.36;422299;1290;143501;-70
2022/12/18 15:17:34;;;;;;;42.20;25.50;;;;;;;-7.68;90.54;101638.04;434166;1282;143335;-70
2022/12/18 15:27:39;;;;;;;44.00;25.20;;;;;;;-7.72;90.74;101633.27;435459;1287;143177;-70
2022/12/18 15:37:46;;;;;;;40.70;22.50;;;;;;;-7.77;90.89;101621.48;435972;1284;144300;-69
2022/12/18 15:47:52;;;;;;;44.90;28.10;;;;;;;-7.79;91.17;101648.27;423567;1282;142454;-70
2022/12/18 15:57:59;;;;;;;42.70;25.90;;;;;;;-7.83;91.21;101654.56;421898;1281;142804;-71
2022/12/18 16:08:05;;;;;;;40.10;24.80;;;;;;;-8.01;91.20;101667.70;422703;1281;142993;-73
2022/12/18 16:18:11;;;;;;;40.60;25.70;;;;;;;-8.16;91.40;101671.98;430431;1280;143699;-70
2022/12/18 16:28:17;;;;;;;43.90;26.50;;;;;;;-8.19;91.57;101669.96;436497;1282;144518;-72
2022/12/18 16:38:22;;;;;;;43.30;27.60;;;;;;;-8.22;91.45;101663.38;436378;1281;142928;-70
2022/12/18 16:48:28;;;;;;;38.50;24.40;;;;;;;-8.38;91.51;101673.83;429480;1288;145881;-70
2022/12/18 16:58:34;;;;;;;41.50;26.70;;;;;;;-8.43;91.79;101680.39;436416;1280;143927;-69
2022/12/18 17:08:40;;;;;;;48.30;27.80;;;;;;;-8.39;92.04;101684.50;436325;1286;143531;-69
2022/12/18 17:18:46;;;;;;;43.90;27.90;;;;;;;-8.42;91.98;101662.09;434827;1281;142978;-70
2022/12/18 17:28:52;;;;;;;55.10;30.10;;;;;;;-8.48;92.15;101663.54;425372;1281;143383;-69
2022/12/18 17:38:59;;;;;;;51.90;30.30;;;;;;;-8.56;92.39;101655.20;424913;1281;186590;-70
2022/12/18 17:49:05;;;;;;;57.40;33.00;;;;;;;-8.58;92.65;101647.14;428925;1281;211240;-69
2022/12/18 17:59:12;;;;;;;50.20;30.30;;;;;;;-8.66;92.75;101652.17;423451;1281;142258;-69
2022/12/18 18:09:18;;;;;;;51.50;30.90;;;;;;;-8.80;92.57;101666.45;422588;1281;144166;-70
2022/12/18 18:19:25;;;;;;;53.70;34.50;;;;;;;-8.91;92.93;101661.54;425283;1281;143833;-70
2022/12/18 18:29:31;;;;;;;55.90;32.90;;;;;;;-8.87;93.15;101665.43;426865;1283;142499;-69
2022/12/18 18:39:38;;;;;;;54.80;32.40;;;;;;;-8.93;93.37;101652.75;422187;1281;143279;-69
2022/12/18 18:49:43;;;;;;;60.40;36.60;;;;;;;-8.95;93.43;101660.83;423571;1282;142989;-69
2022/12/18 18:59:49;;;;;;;48.50;30.40;;;;;;;-8.86;93.75;101676.17;428205;1282;143474;-69
2022/12/18 19:09:55;;;;;;;50.20;30.20;;;;;;;-8.82;93.64;101676.36;435157;1275;144004;-69
2022/12/18 19:20:01;;;;;;;51.10;29.10;;;;;;;-8.85;93.63;101679.46;427833;1275;200600;-68
2022/12/18 19:30:08;;;;;;;53.60;32.00;;;;;;;-8.86;93.76;101689.43;423101;1281;143896;-70
2022/12/18 19:40:14;;;;;;;59.80;33.60;;;;;;;-8.78;93.74;101698.82;436017;1284;144227;-69
2022/12/18 19:50:20;;;;;;;47.50;29.50;;;;;;;-8.72;93.64;101702.84;435046;1280;143614;-70
2022/12/18 20:00:26;;;;;;;44.80;26.00;;;;;;;-8.84;93.22;101714.83;423136;1278;143398;-69
2022/12/18 20:10:32;;;;;;;49.10;31.40;;;;;;;-8.99;93.23;101708.32;423957;1281;143433;-70
2022/12/18 20:20:38;;;;;;;50.30;31.90;;;;;;;-9.06;93.40;101705.41;422611;1276;144691;-68
2022/12/18 20:30:44;;;;;;;45.80;29.40;;;;;;;-9.07;93.57;101677.05;434889;1282;142654;-69
2022/12/18 20:40:50;;;;;;;45.90;26.50;;;;;;;-9.00;93.70;101652.79;429904;1275;145310;-69
2022/12/18 20:51:00;;;;;;;35.50;22.80;;;;;;;-9.01;93.71;101645.79;423788;1275;142951;-69
2022/12/18 21:01:11;;;;;;;34.40;22.90;;;;;;;-9.01;93.82;101637.46;424269;1282;145776;-70
2022/12/18 21:21:48;;;;;;;35.70;21.60;;;;;;;-8.86;94.04;101660.90;434667;1279;144300;-70
2022/12/18 21:31:55;;;;;;;40.30;25.40;;;;;;;-8.78;94.21;101657.06;436033;1282;143725;-70
2022/12/18 21:52:24;;;;;;;37.70;22.50;;;;;;;-8.67;94.31;101642.93;423811;1275;142974;-69
2022/12/18 22:02:36;;;;;;;41.50;25.20;;;;;;;-8.62;94.32;101635.20;422402;1275;145734;-70
2022/12/18 22:12:43;;;;;;;38.40;25.00;;;;;;;-8.56;94.44;101630.56;423007;1275;144183;-70
2022/12/18 22:22:51;;;;;;;34.00;21.40;;;;;;;-8.52;94.25;101635.50;424068;1274;143981;-71
2022/12/18 22:32:58;;;;;;;35.40;23.50;;;;;;;-8.53;94.21;101632.60;423564;1284;144075;-72
2022/12/18 22:43:05;;;;;;;31.70;21.70;;;;;;;-8.49;94.27;101620.66;422881;1281;143892;-69
2022/12/18 22:53:11;;;;;;;31.00;20.80;;;;;;;-8.44;94.18;101603.56;423182;1282;198762;-69
2022/12/18 23:03:17;;;;;;;30.20;20.70;;;;;;;-8.39;94.11;101605.64;426897;1275;143577;-69
2022/12/18 23:13:23;;;;;;;28.80;19.10;;;;;;;-8.45;93.91;101603.52;426029;1278;144478;-70
2022/12/18 23:23:28;;;;;;;26.10;16.90;;;;;;;-8.68;93.67;101572.77;426583;1274;145195;-69
2022/12/18 23:33:34;;;;;;;25.10;16.80;;;;;;;-8.84;93.70;101566.27;422975;1275;142866;-68
2022/12/18 23:43:40;;;;;;;29.50;19.90;;;;;;;-8.82;93.77;101564.99;429626;1282;144987;-70
2022/12/18 23:53:48;;;;;;;23.50;16.10;;;;;;;-8.88;93.66;101568.30;432219;1282;183333;-69
